createdAt,value
2023-03-06T05:03:18.213Z,98047.47
2023-03-06T05:05:44.772Z,98044.28
2023-03-06T05:08:16.399Z,98046.09
2023-03-06T05:10:44.502Z,98040.59
2023-03-06T05:13:11.419Z,98040.03
2023-03-06T05:15:41.429Z,98038.06
2023-03-06T05:18:08.153Z,98037.16
2023-03-06T05:20:44.798Z,98035.91
2023-03-06T05:23:15.650Z,98037.22
2023-03-06T05:25:44.420Z,98037.16
2023-03-06T05:28:10.919Z,98038.03
2023-03-06T05:30:37.514Z,98034.13
2023-03-06T05:33:04.185Z,98036.97
2023-03-06T05:35:30.839Z,98029.84
2023-03-06T05:37:57.578Z,98029.59
2023-03-06T05:40:24.100Z,98030.69
2023-03-06T05:42:50.727Z,98029.81
2023-03-06T05:45:17.474Z,98021.22
2023-03-06T05:47:44.073Z,98021.25
2023-03-06T05:50:11.543Z,98011.59
2023-03-06T05:52:39.730Z,98023.72
2023-03-06T05:55:07.427Z,98014.97
2023-03-06T05:57:41.259Z,98023.59
2023-03-06T06:00:09.650Z,98017.34
2023-03-06T06:02:44.669Z,98018.28
2023-03-06T06:05:13.147Z,98020.66
2023-03-06T06:07:40.548Z,98016.50
2023-03-06T06:10:08.240Z,98016.69
2023-03-06T06:12:34.857Z,98013.69
2023-03-06T06:15:01.654Z,98018.88
2023-03-06T06:17:42.793Z,98019.44
2023-03-06T06:20:28.449Z,98016.41
2023-03-06T06:22:55.214Z,98015.97
2023-03-06T06:25:21.837Z,98016.72
2023-03-06T06:27:48.503Z,98020.16
2023-03-06T06:30:15.254Z,98020.13
2023-03-06T06:32:41.851Z,98022.31
2023-03-06T06:35:08.737Z,98022.22
2023-03-06T06:37:35.544Z,98018.63
2023-03-06T06:40:02.264Z,98015.59
2023-03-06T06:42:35.191Z,98023.13
2023-03-06T06:45:05.599Z,98026.41
2023-03-06T06:47:34.107Z,98025.69
2023-03-06T06:50:00.708Z,98031.22
2023-03-06T06:52:27.301Z,98024.03
2023-03-06T06:54:54.090Z,98029.16
2023-03-06T06:57:20.743Z,98027.03
2023-03-06T06:59:47.268Z,98025.16
2023-03-06T11:32:19.660Z,98017.28
2023-03-06T11:34:52.151Z,98022.34
2023-03-06T11:38:00.748Z,98020.66
2023-03-06T11:40:36.473Z,98014.13
2023-03-06T11:43:09.778Z,98021.03
2023-03-06T11:45:43.914Z,98018.56
2023-03-06T11:48:13.430Z,98019.03
2023-03-06T11:50:49.770Z,98014.31
2023-03-06T11:53:18.935Z,98012.88
2023-03-06T11:56:10.264Z,98009.75
2023-03-06T11:59:16.059Z,98010.03
2023-03-06T12:02:05.554Z,98008.97
2023-03-06T12:04:50.990Z,98009.31
2023-03-06T12:07:21.586Z,98007.78
2023-03-06T12:09:58.854Z,98006.59
2023-03-06T12:12:37.725Z,98006.63
2023-03-06T12:15:30.591Z,98001.16
2023-03-06T12:17:57.038Z,97994.47
2023-03-06T12:20:36.310Z,97996.91
2023-03-06T12:23:28.507Z,97993.91
2023-03-06T12:26:13.478Z,97990.97
2023-03-06T12:29:04.503Z,97982.50
2023-03-06T12:31:50.986Z,97977.56
2023-03-06T12:34:52.815Z,97981.00
2023-03-06T12:37:56.593Z,97983.53
2023-03-06T12:40:45.051Z,97975.38
2023-03-06T12:43:45.163Z,97981.06
2023-03-06T12:46:16.588Z,97976.84
2023-03-06T12:48:49.997Z,97977.56
2023-03-06T12:51:20.328Z,97982.25
2023-03-06T12:53:48.803Z,97984.13
2023-03-06T12:56:20.548Z,97982.81
2023-03-06T12:58:55.077Z,97969.69
2023-03-06T13:01:38.512Z,97978.84
2023-03-06T13:04:23.918Z,97971.50
2023-03-06T13:07:12.316Z,97976.97
2023-03-06T13:09:38.876Z,97976.69
2023-03-06T13:12:27.598Z,97981.47
2023-03-06T13:15:00.662Z,97974.84
2023-03-06T13:17:34.323Z,97973.44
2023-03-06T13:20:13.311Z,97966.81
2023-03-06T13:22:47.150Z,97970.66
2023-03-06T13:25:16.775Z,97975.84
2023-03-06T13:27:53.320Z,97968.13
2023-03-06T13:30:46.273Z,97977.13
2023-03-06T13:33:30.012Z,97977.44
2023-03-06T13:36:00.350Z,97973.19
2023-03-06T13:38:37.581Z,97981.53
2023-03-06T13:41:52.936Z,97976.34
2023-03-06T13:44:25.556Z,97964.47
2023-03-06T13:47:06.259Z,97969.59
2023-03-06T13:49:34.454Z,97965.50
2023-03-06T13:52:00.953Z,97953.31
2023-03-06T13:54:52.148Z,97959.31
2023-03-06T13:57:49.435Z,97952.78
2023-03-06T14:00:23.795Z,97944.00
2023-03-06T14:03:04.320Z,97937.38
2023-03-06T14:05:43.746Z,97932.13
2023-03-06T14:08:17.901Z,97921.91
2023-03-06T14:10:46.450Z,97929.84
2023-03-06T14:13:30.042Z,97928.81
2023-03-06T14:15:58.946Z,97929.88
2023-03-06T14:18:41.569Z,97923.72
2023-03-06T14:21:13.448Z,97927.34
2023-03-06T14:23:46.386Z,97924.13
2023-03-06T14:26:21.880Z,97929.88
2023-03-06T14:28:59.577Z,97930.16
2023-03-06T14:31:30.463Z,97924.69
2023-03-06T14:33:59.619Z,97917.06
2023-03-06T14:36:47.616Z,97928.53
2023-03-06T14:39:21.947Z,97914.03
2023-03-06T14:41:48.898Z,97914.75
2023-03-06T14:44:22.593Z,97911.13
2023-03-06T14:46:57.422Z,97915.19
2023-03-06T14:49:25.892Z,97917.31
2023-03-06T14:52:00.462Z,97899.66
2023-03-06T14:54:34.445Z,97906.97
2023-03-06T14:57:02.588Z,97906.63
2023-03-06T14:59:34.724Z,97904.16
2023-03-06T15:02:06.299Z,97897.00
2023-03-06T15:04:44.835Z,97906.19
2023-03-06T15:07:15.995Z,97907.56
2023-03-06T15:09:51.819Z,97903.41
2023-03-06T15:12:21.754Z,97895.84
2023-03-06T15:14:57.149Z,97908.66
2023-03-06T15:17:25.226Z,97904.84
2023-03-06T15:19:55.305Z,97901.94
2023-03-06T15:22:24.818Z,97900.28
2023-03-06T15:24:51.508Z,97898.38
2023-03-06T15:27:26.814Z,97899.69
2023-03-06T15:29:53.381Z,97896.13
2023-03-06T15:32:32.401Z,97898.25
2023-03-06T15:35:25.156Z,97898.22
2023-03-06T15:37:52.599Z,97901.69
2023-03-06T15:40:20.686Z,97896.53
2023-03-06T15:42:47.317Z,97895.09
2023-03-06T15:45:32.148Z,97903.59
2023-03-06T15:47:58.756Z,97895.03
2023-03-06T15:50:28.716Z,97893.72
2023-03-06T15:52:55.314Z,97899.94
2023-03-06T15:55:25.784Z,97899.38
2023-03-06T15:58:02.016Z,97899.78
2023-03-06T16:00:34.231Z,97899.31
2023-03-06T16:03:01.898Z,97897.72
2023-03-06T16:05:29.024Z,97890.28
2023-03-06T16:07:56.066Z,97893.03
2023-03-06T16:10:27.365Z,97891.56
2023-03-06T16:12:57.327Z,97897.47
2023-03-06T16:15:28.884Z,97893.63
2023-03-06T16:17:56.922Z,97888.34
2023-03-06T16:20:26.060Z,97889.66
2023-03-06T16:22:56.008Z,97891.81
2023-03-06T16:25:26.184Z,97889.84
2023-03-06T16:27:59.578Z,97896.06
2023-03-06T16:30:29.220Z,97893.44
2023-03-06T16:32:57.094Z,97897.19
2023-03-06T16:35:23.862Z,97895.47
2023-03-06T16:37:50.652Z,97894.31
2023-03-06T16:40:41.054Z,97895.00
2023-03-06T16:43:09.322Z,97894.84
2023-03-06T16:45:41.171Z,97905.75
2023-03-06T16:48:14.913Z,97908.91
2023-03-06T16:50:41.678Z,97904.59
2023-03-06T16:53:09.261Z,97911.03
2023-03-06T16:55:36.056Z,97913.88
2023-03-06T16:58:02.698Z,97918.53
2023-03-06T17:00:33.057Z,97914.44
2023-03-06T17:03:00.700Z,97913.50
2023-03-06T17:05:28.653Z,97918.47
2023-03-06T17:07:55.808Z,97917.97
2023-03-06T17:10:26.169Z,97911.94
2023-03-06T17:12:53.262Z,97917.22
2023-03-06T17:15:20.186Z,97923.63
2023-03-06T17:17:47.055Z,97918.59
2023-03-06T17:20:13.667Z,97930.06
2023-03-06T17:22:41.482Z,97921.84
2023-03-06T17:25:09.355Z,97931.00
2023-03-06T17:27:37.064Z,97929.78
2023-03-06T17:30:05.193Z,97932.84
2023-03-06T17:32:32.793Z,97936.41
2023-03-06T17:34:59.889Z,97938.97
2023-03-06T17:37:26.539Z,97933.41
2023-03-06T17:39:53.172Z,97936.28
2023-03-06T17:42:19.738Z,97938.50
2023-03-06T17:44:46.233Z,97937.50
2023-03-06T17:47:12.835Z,97943.25
2023-03-06T17:49:39.364Z,97942.38
2023-03-06T17:52:06.502Z,97945.75
2023-03-06T17:54:33.360Z,97942.31
2023-03-06T17:57:03.280Z,97936.94
2023-03-06T17:59:30.931Z,97939.22
2023-03-06T18:02:00.764Z,97940.34
2023-03-06T18:04:28.017Z,97941.25
2023-03-06T18:06:54.900Z,97940.63
2023-03-06T18:09:21.513Z,97937.44
2023-03-06T18:11:48.060Z,97940.75
2023-03-06T18:14:14.687Z,97937.97
2023-03-06T18:16:41.334Z,97937.63
2023-03-06T18:19:11.173Z,97932.94
2023-03-06T18:21:39.097Z,97943.00
2023-03-06T18:24:06.028Z,97935.13
2023-03-06T18:26:32.570Z,97939.56
2023-03-06T18:29:03.647Z,97936.84
2023-03-06T18:31:34.475Z,97938.88
2023-03-06T18:34:08.012Z,97938.03
2023-03-06T18:36:35.216Z,97937.59
2023-03-06T18:39:03.835Z,97931.94
2023-03-06T18:41:31.429Z,97932.09
2023-03-06T18:44:00.173Z,97930.56
2023-03-06T18:46:35.805Z,97936.94
2023-03-06T18:49:03.215Z,97939.06
2023-03-06T18:51:30.209Z,97929.56
2023-03-06T18:54:00.778Z,97929.69
2023-03-06T18:56:27.729Z,97935.34
2023-03-06T18:58:54.634Z,97934.84
2023-03-06T19:01:22.503Z,97931.66
2023-03-06T19:03:49.453Z,97938.53
2023-03-06T19:06:17.264Z,97929.28
2023-03-06T19:08:44.589Z,97926.06
2023-03-06T19:11:14.043Z,97936.44
2023-03-06T19:13:41.904Z,97930.88
2023-03-06T19:16:09.405Z,97925.97
2023-03-06T19:18:36.003Z,97930.28
2023-03-06T19:21:11.277Z,97927.13
2023-03-06T19:23:38.009Z,97929.22
2023-03-06T19:26:04.867Z,97932.44
2023-03-06T19:28:31.430Z,97929.31
2023-03-06T19:30:58.029Z,97933.75
2023-03-06T19:33:24.723Z,97921.63
2023-03-06T19:35:51.428Z,97927.34
2023-03-06T19:38:18.356Z,97927.88
2023-03-06T19:40:49.781Z,97931.56
2023-03-06T19:43:16.603Z,97928.06
2023-03-06T19:45:44.181Z,97927.34
2023-03-06T19:48:12.403Z,97924.78
2023-03-06T19:50:42.090Z,97927.00
2023-03-06T19:53:10.920Z,97916.88
2023-03-06T19:55:38.450Z,97919.50
2023-03-06T19:58:05.031Z,97915.81
2023-03-06T20:00:32.472Z,97921.16
2023-03-06T20:02:58.979Z,97920.59
2023-03-06T20:05:25.583Z,97916.75
2023-03-06T20:07:52.517Z,97916.97
2023-03-06T20:10:19.204Z,97915.53
2023-03-06T20:12:45.831Z,97923.41
2023-03-06T20:15:13.288Z,97916.72
2023-03-06T20:17:40.756Z,97917.72
2023-03-06T20:20:09.334Z,97911.38
2023-03-06T20:22:36.144Z,97910.28
2023-03-06T20:25:02.788Z,97912.69
2023-03-06T20:27:29.554Z,97914.69
2023-03-06T20:29:56.201Z,97906.78
2023-03-06T20:32:22.836Z,97900.00
2023-03-06T20:34:49.346Z,97902.88
2023-03-06T20:37:15.943Z,97901.91
2023-03-06T20:39:42.464Z,97905.06
2023-03-06T20:42:08.974Z,97905.16
2023-03-06T20:44:36.216Z,97897.28
2023-03-06T20:47:02.717Z,97899.56
2023-03-06T20:49:29.259Z,97901.75
2023-03-06T20:51:56.786Z,97900.97
2023-03-06T20:54:23.365Z,97900.31
2023-03-06T20:56:50.379Z,97901.78
2023-03-06T20:59:17.104Z,97899.53
2023-03-06T21:01:45.134Z,97899.94
2023-03-06T21:04:14.033Z,97889.13
2023-03-06T21:06:43.909Z,97893.31
2023-03-06T21:09:11.225Z,97891.94
2023-03-06T21:11:38.144Z,97891.25
2023-03-06T21:14:05.326Z,97895.38
2023-03-06T21:16:31.977Z,97890.13
2023-03-06T21:19:00.376Z,97887.06
2023-03-06T21:21:30.430Z,97883.22
2023-03-06T21:23:57.630Z,97896.59
2023-03-06T21:26:27.301Z,97888.63
2023-03-06T21:28:56.466Z,97893.41
2023-03-06T21:31:23.072Z,97894.97
2023-03-06T21:33:50.434Z,97890.69
2023-03-06T21:36:18.687Z,97887.13
2023-03-06T21:38:46.520Z,97891.09
2023-03-06T21:41:15.965Z,97886.19
2023-03-06T21:43:43.268Z,97887.06
2023-03-06T21:46:10.859Z,97879.09
2023-03-06T21:48:37.534Z,97879.31
2023-03-06T21:51:23.674Z,97881.25
